Time;durP1;ratioP1;P1;durP2;ratioP2;P2;SDS_P1;SDS_P2;PMS_P1;PMS_P2;Temp;Humidity;BMP_temperature;BMP_pressure;BME280_temperature;BME280_humidity;BME280_pressure;Samples;Min_cycle;Max_cycle;Signal;HPM_P1;HPM_P2
2022/07/16 06:46:15;;;;;;;2.92;1.55;;;;;;;;;;10586225;28;20479;-83
2022/07/16 06:51:26;;;;;;;2.17;1.27;;;;;;;;;;10591464;28;20035;-83
2022/07/16 06:56:31;;;;;;;2.97;1.40;;;;;;;;;;10569462;28;20037;-83
2022/07/16 07:01:33;;;;;;;1.50;1.20;;;;;;;;;;10567907;28;20031;-83
2022/07/16 07:06:54;;;;;;;1.13;0.90;;;;;;;;;;10584145;28;20015;-85
2022/07/16 07:11:55;;;;;;;4.55;1.08;;;;;;;;;;10547138;28;20020;-83
2022/07/16 07:17:01;;;;;;;1.48;0.98;;;;;;;;;;10563175;28;20047;-84
2022/07/16 07:22:05;;;;;;;1.42;1.00;;;;;;;;;;10551085;28;20092;-83
2022/07/16 07:27:07;;;;;;;2.80;1.02;;;;;;;;;;10547535;28;20032;-83
2022/07/16 07:32:13;;;;;;;1.73;0.73;;;;;;;;;;10545471;28;20020;-83
2022/07/16 07:37:15;;;;;;;4.07;0.80;;;;;;;;;;10540852;28;20129;-84
2022/07/16 07:42:25;;;;;;;6.40;3.85;;;;;;;;;;10561042;28;20049;-83
2022/07/16 07:47:28;;;;;;;1.92;1.20;;;;;;;;;;10560342;28;20202;-83
2022/07/16 07:52:30;;;;;;;3.50;1.50;;;;;;;;;;10556818;28;20036;-83
2022/07/16 07:57:32;;;;;;;3.50;1.20;;;;;;;;;;10560000;28;20499;-83
2022/07/16 08:02:46;;;;;;;4.38;1.30;;;;;;;;;;10543142;28;20028;-84
2022/07/16 08:07:47;;;;;;;2.38;1.30;;;;;;;;;;10542819;28;20442;-84
2022/07/16 08:18:20;;;;;;;4.10;1.90;;;;;;;;;;10553143;28;20060;-84
2022/07/16 08:25:44;;;;;;;2.38;1.58;;;;;;;;;;10547126;28;20118;-83
2022/07/16 08:28:46;;;;;;;2.97;2.05;;;;;;;;;;10558558;28;20044;-84
2022/07/16 08:33:47;;;;;;;8.40;5.57;;;;;;;;;;10539395;28;20372;-82
2022/07/16 08:38:48;;;;;;;4.35;1.95;;;;;;;;;;10540862;28;20395;-84
2022/07/16 08:44:13;;;;;;;4.13;1.70;;;;;;;;;;10559127;28;20072;-86
2022/07/16 08:49:19;;;;;;;2.97;1.48;;;;;;;;;;10555607;28;20394;-84
2022/07/16 08:54:28;;;;;;;2.63;1.27;;;;;;;;;;10553599;28;20028;-88
2022/07/16 08:59:36;;;;;;;2.95;1.63;;;;;;;;;;10553316;28;20070;-86
2022/07/16 09:04:37;;;;;;;3.42;1.40;;;;;;;;;;10540841;28;20040;-83
2022/07/16 09:09:39;;;;;;;2.63;1.40;;;;;;;;;;10557506;28;20119;-85
2022/07/16 09:14:42;;;;;;;2.70;1.10;;;;;;;;;;10545175;28;20127;-82
2022/07/16 09:19:52;;;;;;;6.53;1.50;;;;;;;;;;10559729;28;20024;-85
2022/07/16 09:24:55;;;;;;;6.93;5.30;;;;;;;;;;10544324;28;20039;-83
2022/07/16 09:30:04;;;;;;;3.17;1.60;;;;;;;;;;10544589;28;20506;-87
2022/07/16 09:35:31;;;;;;;4.07;2.10;;;;;;;;;;10533614;28;20024;-86
2022/07/16 09:40:51;;;;;;;3.60;2.03;;;;;;;;;;10539508;28;20024;-84
2022/07/16 09:46:23;;;;;;;8.15;1.80;;;;;;;;;;10536458;28;20035;-84
2022/07/16 09:52:00;;;;;;;3.30;1.65;;;;;;;;;;10550229;28;20108;-84
2022/07/16 09:57:15;;;;;;;2.60;1.60;;;;;;;;;;10532646;28;20020;-84
2022/07/16 10:02:17;;;;;;;4.95;1.73;;;;;;;;;;10536999;28;20023;-84
2022/07/16 10:07:23;;;;;;;2.80;1.48;;;;;;;;;;10522090;28;20040;-84
2022/07/16 10:12:30;;;;;;;3.50;1.48;;;;;;;;;;10550961;28;20018;-85
2022/07/16 10:17:31;;;;;;;4.70;1.98;;;;;;;;;;10536529;28;20043;-85
2022/07/16 10:22:57;;;;;;;3.53;1.38;;;;;;;;;;10555145;28;20028;-84
2022/07/16 10:28:00;;;;;;;2.92;1.70;;;;;;;;;;10562645;28;20487;-83
2022/07/16 10:33:10;;;;;;;2.55;1.45;;;;;;;;;;10563926;28;20024;-86
2022/07/16 10:38:20;;;;;;;3.00;1.60;;;;;;;;;;10568960;28;20039;-84
2022/07/16 10:43:29;;;;;;;2.63;1.30;;;;;;;;;;10570443;28;20057;-84
2022/07/16 10:49:04;;;;;;;5.83;3.87;;;;;;;;;;10577064;28;20043;-84
2022/07/16 10:54:28;;;;;;;3.30;1.70;;;;;;;;;;10381201;28;20038;-84
2022/07/16 10:59:45;;;;;;;4.45;1.88;;;;;;;;;;10308585;28;20126;-86
2022/07/16 11:05:07;;;;;;;2.40;1.30;;;;;;;;;;10552570;28;20035;-86
2022/07/16 11:10:18;;;;;;;3.10;1.27;;;;;;;;;;10538076;28;20039;-86
2022/07/16 11:15:33;;;;;;;3.80;1.13;;;;;;;;;;10562126;28;20036;-85
2022/07/16 11:20:36;;;;;;;4.00;1.40;;;;;;;;;;10550287;28;20032;-85
2022/07/16 11:26:02;;;;;;;2.35;1.10;;;;;;;;;;10548899;28;20058;-86
2022/07/16 11:31:18;;;;;;;4.00;2.78;;;;;;;;;;10549002;28;20024;-86
2022/07/16 11:36:43;;;;;;;1.73;0.85;;;;;;;;;;10544003;28;20042;-86
2022/07/16 11:41:48;;;;;;;4.25;1.05;;;;;;;;;;10540604;28;20020;-84
2022/07/16 11:47:00;;;;;;;3.53;1.20;;;;;;;;;;10529137;28;20035;-85
2022/07/16 11:52:02;;;;;;;5.70;1.50;;;;;;;;;;10540414;28;20024;-83
2022/07/16 11:57:11;;;;;;;3.38;1.08;;;;;;;;;;10536533;28;20515;-82
2022/07/16 12:20:04;;;;;;;2.25;0.77;;;;;;;;;;10374912;28;20120;-85
2022/07/16 16:28:58;;;;;;;4.20;1.08;;;;;;;;;;10236326;29;20036;-87
2022/07/16 16:34:36;;;;;;;4.00;1.40;;;;;;;;;;10234033;29;20547;-86
2022/07/16 16:46:04;;;;;;;2.67;0.60;;;;;;;;;;10118457;29;20028;-87
2022/07/16 17:14:55;;;;;;;1.55;0.68;;;;;;;;;;10194272;29;20024;-84
2022/07/16 17:43:17;;;;;;;1.85;0.85;;;;;;;;;;9957943;29;20039;-85
2022/07/16 17:59:41;;;;;;;2.90;0.70;;;;;;;;;;10238948;29;20032;-86
2022/07/16 18:05:19;;;;;;;3.33;1.45;;;;;;;;;;10130217;29;20033;-87
2022/07/16 18:10:59;;;;;;;2.72;0.90;;;;;;;;;;10140672;29;20051;-87
2022/07/16 18:21:47;;;;;;;3.50;0.80;;;;;;;;;;10151850;29;20505;-87
2022/07/16 18:27:27;;;;;;;3.20;1.00;;;;;;;;;;10043420;29;20062;-87
2022/07/16 18:38:41;;;;;;;1.77;0.85;;;;;;;;;;10056132;29;20045;-87
2022/07/16 18:43:42;;;;;;;2.60;0.90;;;;;;;;;;10154571;29;20040;-86
2022/07/16 18:48:44;;;;;;;2.30;1.00;;;;;;;;;;10234643;29;20191;-86
2022/07/16 18:53:45;;;;;;;1.85;0.93;;;;;;;;;;10236060;29;20032;-86
2022/07/16 18:58:46;;;;;;;2.03;1.00;;;;;;;;;;10234311;29;20054;-86
2022/07/16 19:03:47;;;;;;;2.05;0.82;;;;;;;;;;10228779;29;20386;-85
2022/07/16 19:08:48;;;;;;;3.03;0.95;;;;;;;;;;10239799;29;20099;-88
2022/07/16 19:13:58;;;;;;;2.25;0.90;;;;;;;;;;10235395;29;20031;-87
2022/07/16 19:18:59;;;;;;;1.73;1.00;;;;;;;;;;10230420;28;20043;-86
2022/07/16 19:24:01;;;;;;;2.63;1.00;;;;;;;;;;10236371;29;20040;-87
